Loyal, WI

1:10 PM CDT on August 22, 2014 (GMT -0500)
Marshfield Municipal | Change Station
CLOSE
Current Station
Airport
Location: Marshfield,
Elevation: 1276 ft
Nearby Weather Stations

Elev 1276 ft 44.64 °N, 90.19 °W | Updated 16 minutes ago

Overcast
Overcast
77 °F
Feels Like 77 °F
N
8
Wind Variable Wind from South

Today
High -- | Low -- °F
--% Chance of Precip.
Yesterday
High -- | Low -- °F
Precip. -- in
6:12 AM 7:56 PM
Waning Crescent, 7% visible
Pressure 29.94 in
Visibility 7.0 miles
Clouds Overcast 600 ft
Dew Point 73 °F
Humidity 88%
Rainfall 0.00 in
Snow Depth Not available.
UV 3 out of 12
Pollen 8.10 out of 12
Air Quality Not available.
Flu Activity Not available.
METAR KMFI 221754Z AUTO 18007KT 7SM OVC006 25/23 A2996 RMK AO2 CIG 004V010 SLP138 T02500228 10250 20211 58002

More Conditions Fewer Conditions

Pressure 29.94 in
Visibility 7.0 miles
Clouds Overcast 600 ft
Dew Point 73 °F
Humidity 88%
Rainfall 0.00 in
Snow Depth Not available.
UV 3 out of 12
Pollen 8.10 out of 12
Air Quality Not available.
Flu Activity Not available.
METAR KMFI 221754Z AUTO 18007KT 7SM OVC006 25/23 A2996 RMK AO2 CIG 004V010 SLP138 T02500228 10250 20211 58002

More Conditions Fewer Conditions

10-Day Weather Forecast

Almanac

Astronomy

Aug. 22, 2014 Rise Set
Actual Time 6:12 AM CDT 7:56 PM CDT
Civil Twilight 5:41 AM CDT 8:27 PM CDT
Nautical Twilight 5:03 AM CDT 9:04 PM CDT
Astronomical Twilight 4:22 AM CDT 9:45 PM CDT
Moon 3:32 AM CDT 6:06 PM CDT
Length of Visible Light 14h 45m
Length of Day
13h 43m
Tomorrow will be 2m 53s shorter.
Waning Crescent, 7% of the Moon is Illuminated
Today
Waning Crescent
Aug 25
New
Sep 2
First Quarter
Sep 8
Full
Sep 15
Last Quarter

Today's Extremes

State Highs State Lows

Community

WunderPhotos

Upload Photos

1,746,214 photos uploaded!

WunderBlogs® & News

Nearby

Snow Depth

Station Depth Elevation
No new snow has been reported.

Earthquake Activity

City Distance Mag. Time & Date
No recent earthquake activity has been reported nearby.
Minimum magnitude displayed is 2.5.

Coastal Water Temperatures

Place Temperature
No Stations Reporting

Nearby Weather Stations